sensor_id;sensor_type;location;lat;lon;timestamp;P1;durP1;ratioP1;P2;durP2;ratioP2
17504;SDS011;8870;50.950;11.762;2023-11-22T00:01:20;14.32;;;10.68;;
17504;SDS011;8870;50.950;11.762;2023-11-22T00:06:51;15.02;;;12.65;;
17504;SDS011;8870;50.950;11.762;2023-11-22T00:12:12;15.73;;;11.68;;
17504;SDS011;8870;50.950;11.762;2023-11-22T00:17:44;15.40;;;12.20;;
17504;SDS011;8870;50.950;11.762;2023-11-22T00:23:02;13.98;;;12.15;;
17504;SDS011;8870;50.950;11.762;2023-11-22T00:28:37;13.23;;;10.73;;
17504;SDS011;8870;50.950;11.762;2023-11-22T00:33:55;15.35;;;11.27;;
17504;SDS011;8870;50.950;11.762;2023-11-22T00:39:26;14.20;;;11.05;;
17504;SDS011;8870;50.950;11.762;2023-11-22T00:44:54;11.00;;;9.13;;
17504;SDS011;8870;50.950;11.762;2023-11-22T00:50:27;10.20;;;8.27;;
17504;SDS011;8870;50.950;11.762;2023-11-22T00:55:45;11.70;;;9.45;;
17504;SDS011;8870;50.950;11.762;2023-11-22T01:01:20;10.73;;;8.70;;
17504;SDS011;8870;50.950;11.762;2023-11-22T01:06:38;9.45;;;8.40;;
17504;SDS011;8870;50.950;11.762;2023-11-22T01:12:09;9.95;;;8.90;;
17504;SDS011;8870;50.950;11.762;2023-11-22T01:17:30;10.57;;;8.27;;
17504;SDS011;8870;50.950;11.762;2023-11-22T01:23:01;9.48;;;7.63;;
17504;SDS011;8870;50.950;11.762;2023-11-22T01:28:20;11.52;;;7.53;;
17504;SDS011;8870;50.950;11.762;2023-11-22T01:33:58;9.25;;;8.20;;
17504;SDS011;8870;50.950;11.762;2023-11-22T01:39:17;7.70;;;6.93;;
17504;SDS011;8870;50.950;11.762;2023-11-22T01:44:49;8.38;;;7.00;;
17504;SDS011;8870;50.950;11.762;2023-11-22T01:50:10;7.88;;;6.65;;
17504;SDS011;8870;50.950;11.762;2023-11-22T01:55:43;7.57;;;6.60;;
17504;SDS011;8870;50.950;11.762;2023-11-22T02:01:02;8.23;;;7.20;;
17504;SDS011;8870;50.950;11.762;2023-11-22T02:06:39;8.65;;;6.70;;
17504;SDS011;8870;50.950;11.762;2023-11-22T02:11:57;9.25;;;6.30;;
17504;SDS011;8870;50.950;11.762;2023-11-22T02:17:29;6.93;;;6.22;;
17504;SDS011;8870;50.950;11.762;2023-11-22T02:22:52;6.97;;;5.75;;
17504;SDS011;8870;50.950;11.762;2023-11-22T02:28:26;7.40;;;5.47;;
17504;SDS011;8870;50.950;11.762;2023-11-22T02:33:44;6.90;;;5.95;;
17504;SDS011;8870;50.950;11.762;2023-11-22T02:39:16;8.57;;;6.28;;
17504;SDS011;8870;50.950;11.762;2023-11-22T02:44:37;6.90;;;5.80;;
17504;SDS011;8870;50.950;11.762;2023-11-22T02:50:09;8.23;;;6.20;;
17504;SDS011;8870;50.950;11.762;2023-11-22T02:55:27;7.18;;;5.93;;
17504;SDS011;8870;50.950;11.762;2023-11-22T03:01:01;8.02;;;6.32;;
17504;SDS011;8870;50.950;11.762;2023-11-22T03:06:20;9.82;;;6.13;;
17504;SDS011;8870;50.950;11.762;2023-11-22T03:11:52;6.82;;;6.00;;
17504;SDS011;8870;50.950;11.762;2023-11-22T03:17:16;9.25;;;6.15;;
17504;SDS011;8870;50.950;11.762;2023-11-22T03:22:49;7.97;;;6.50;;
17504;SDS011;8870;50.950;11.762;2023-11-22T03:28:07;7.43;;;6.05;;
17504;SDS011;8870;50.950;11.762;2023-11-22T03:33:42;8.65;;;6.47;;
17504;SDS011;8870;50.950;11.762;2023-11-22T03:39:01;8.15;;;6.43;;
17504;SDS011;8870;50.950;11.762;2023-11-22T03:44:36;9.13;;;7.13;;
17504;SDS011;8870;50.950;11.762;2023-11-22T03:50:10;8.30;;;7.18;;
17504;SDS011;8870;50.950;11.762;2023-11-22T03:55:29;9.23;;;7.55;;
17504;SDS011;8870;50.950;11.762;2023-11-22T04:01:00;9.52;;;7.03;;
17504;SDS011;8870;50.950;11.762;2023-11-22T04:06:22;8.05;;;6.53;;
17504;SDS011;8870;50.950;11.762;2023-11-22T04:11:54;7.97;;;6.70;;
17504;SDS011;8870;50.950;11.762;2023-11-22T04:17:12;8.00;;;6.72;;
17504;SDS011;8870;50.950;11.762;2023-11-22T04:22:47;7.72;;;6.53;;
17504;SDS011;8870;50.950;11.762;2023-11-22T04:28:05;7.72;;;6.38;;
17504;SDS011;8870;50.950;11.762;2023-11-22T04:33:36;8.27;;;5.95;;
17504;SDS011;8870;50.950;11.762;2023-11-22T04:38:58;5.95;;;4.88;;
17504;SDS011;8870;50.950;11.762;2023-11-22T04:44:31;6.75;;;5.25;;
17504;SDS011;8870;50.950;11.762;2023-11-22T04:50:02;6.75;;;5.70;;
17504;SDS011;8870;50.950;11.762;2023-11-22T04:55:38;6.70;;;5.35;;
17504;SDS011;8870;50.950;11.762;2023-11-22T05:00:56;7.40;;;5.68;;
17504;SDS011;8870;50.950;11.762;2023-11-22T05:06:35;5.75;;;5.05;;
17504;SDS011;8870;50.950;11.762;2023-11-22T05:11:56;6.28;;;5.22;;
17504;SDS011;8870;50.950;11.762;2023-11-22T05:17:27;6.88;;;5.15;;
17504;SDS011;8870;50.950;11.762;2023-11-22T05:22:45;6.90;;;5.57;;
17504;SDS011;8870;50.950;11.762;2023-11-22T05:28:20;6.55;;;5.15;;
17504;SDS011;8870;50.950;11.762;2023-11-22T05:33:38;6.07;;;5.25;;
17504;SDS011;8870;50.950;11.762;2023-11-22T05:39:09;7.32;;;5.22;;
17504;SDS011;8870;50.950;11.762;2023-11-22T05:44:37;6.38;;;5.28;;
17504;SDS011;8870;50.950;11.762;2023-11-22T05:50:09;6.50;;;5.10;;
17504;SDS011;8870;50.950;11.762;2023-11-22T05:55:40;5.78;;;5.18;;
17504;SDS011;8870;50.950;11.762;2023-11-22T06:01:01;6.80;;;5.53;;
17504;SDS011;8870;50.950;11.762;2023-11-22T06:06:33;7.38;;;5.90;;
17504;SDS011;8870;50.950;11.762;2023-11-22T06:11:51;9.25;;;5.68;;
17504;SDS011;8870;50.950;11.762;2023-11-22T06:17:25;8.00;;;5.57;;
17504;SDS011;8870;50.950;11.762;2023-11-22T06:22:44;6.47;;;5.35;;
17504;SDS011;8870;50.950;11.762;2023-11-22T06:28:16;6.60;;;5.55;;
17504;SDS011;8870;50.950;11.762;2023-11-22T06:33:37;7.00;;;6.05;;
17504;SDS011;8870;50.950;11.762;2023-11-22T06:39:08;8.68;;;6.32;;
17504;SDS011;8870;50.950;11.762;2023-11-22T06:44:35;7.40;;;5.72;;
17504;SDS011;8870;50.950;11.762;2023-11-22T06:50:12;8.25;;;6.22;;
17504;SDS011;8870;50.950;11.762;2023-11-22T06:55:30;7.22;;;5.82;;
17504;SDS011;8870;50.950;11.762;2023-11-22T07:01:02;9.02;;;6.65;;
17504;SDS011;8870;50.950;11.762;2023-11-22T07:06:27;6.90;;;6.07;;
17504;SDS011;8870;50.950;11.762;2023-11-22T07:11:59;7.15;;;6.13;;
17504;SDS011;8870;50.950;11.762;2023-11-22T07:17:21;7.20;;;6.20;;
17504;SDS011;8870;50.950;11.762;2023-11-22T07:22:57;7.90;;;6.20;;
17504;SDS011;8870;50.950;11.762;2023-11-22T07:28:15;7.60;;;6.18;;
17504;SDS011;8870;50.950;11.762;2023-11-22T07:33:47;6.20;;;5.60;;
17504;SDS011;8870;50.950;11.762;2023-11-22T07:39:09;7.00;;;5.35;;
17504;SDS011;8870;50.950;11.762;2023-11-22T07:44:42;6.72;;;5.25;;
17504;SDS011;8870;50.950;11.762;2023-11-22T07:50:17;6.72;;;5.30;;
17504;SDS011;8870;50.950;11.762;2023-11-22T07:55:39;6.85;;;5.57;;
17504;SDS011;8870;50.950;11.762;2023-11-22T08:01:10;6.35;;;5.40;;
17504;SDS011;8870;50.950;11.762;2023-11-22T08:06:29;6.47;;;5.40;;
17504;SDS011;8870;50.950;11.762;2023-11-22T08:12:03;6.03;;;5.07;;
17504;SDS011;8870;50.950;11.762;2023-11-22T08:17:21;7.07;;;5.85;;
17504;SDS011;8870;50.950;11.762;2023-11-22T08:22:53;5.63;;;4.90;;
17504;SDS011;8870;50.950;11.762;2023-11-22T08:28:14;5.80;;;5.05;;
17504;SDS011;8870;50.950;11.762;2023-11-22T08:33:47;6.70;;;5.90;;
17504;SDS011;8870;50.950;11.762;2023-11-22T08:39:05;7.07;;;5.22;;
17504;SDS011;8870;50.950;11.762;2023-11-22T08:44:41;5.30;;;4.80;;
17504;SDS011;8870;50.950;11.762;2023-11-22T08:50:12;5.47;;;4.80;;
17504;SDS011;8870;50.950;11.762;2023-11-22T08:55:31;5.35;;;4.50;;
17504;SDS011;8870;50.950;11.762;2023-11-22T09:01:07;5.55;;;4.95;;
17504;SDS011;8870;50.950;11.762;2023-11-22T09:06:25;5.80;;;5.10;;
17504;SDS011;8870;50.950;11.762;2023-11-22T09:11:57;5.88;;;5.20;;
17504;SDS011;8870;50.950;11.762;2023-11-22T09:17:18;6.53;;;5.20;;
17504;SDS011;8870;50.950;11.762;2023-11-22T09:22:50;8.07;;;4.97;;
17504;SDS011;8870;50.950;11.762;2023-11-22T09:28:09;5.25;;;4.75;;
17504;SDS011;8870;50.950;11.762;2023-11-22T09:33:44;5.68;;;5.00;;
17504;SDS011;8870;50.950;11.762;2023-11-22T09:39:02;5.18;;;4.57;;
17504;SDS011;8870;50.950;11.762;2023-11-22T09:44:34;5.85;;;4.75;;
17504;SDS011;8870;50.950;11.762;2023-11-22T09:49:55;7.38;;;5.07;;
17504;SDS011;8870;50.950;11.762;2023-11-22T09:55:31;5.25;;;4.55;;
17504;SDS011;8870;50.950;11.762;2023-11-22T10:00:50;6.97;;;4.95;;
17504;SDS011;8870;50.950;11.762;2023-11-22T10:06:25;6.13;;;4.85;;
17504;SDS011;8870;50.950;11.762;2023-11-22T10:11:47;5.55;;;4.85;;
17504;SDS011;8870;50.950;11.762;2023-11-22T10:17:18;5.75;;;5.00;;
17504;SDS011;8870;50.950;11.762;2023-11-22T10:22:46;6.00;;;5.05;;
17504;SDS011;8870;50.950;11.762;2023-11-22T10:28:18;6.03;;;5.05;;
17504;SDS011;8870;50.950;11.762;2023-11-22T10:33:39;6.15;;;5.10;;
17504;SDS011;8870;50.950;11.762;2023-11-22T10:39:13;6.57;;;4.40;;
17504;SDS011;8870;50.950;11.762;2023-11-22T10:44:31;6.13;;;4.45;;
17504;SDS011;8870;50.950;11.762;2023-11-22T10:50:05;8.32;;;4.75;;
17504;SDS011;8870;50.950;11.762;2023-11-22T10:55:32;4.80;;;4.32;;
17504;SDS011;8870;50.950;11.762;2023-11-22T11:01:04;5.30;;;4.63;;
17504;SDS011;8870;50.950;11.762;2023-11-22T11:06:26;5.13;;;4.60;;
17504;SDS011;8870;50.950;11.762;2023-11-22T11:12:05;4.75;;;4.32;;
17504;SDS011;8870;50.950;11.762;2023-11-22T11:17:24;6.28;;;5.15;;
17504;SDS011;8870;50.950;11.762;2023-11-22T11:22:56;5.35;;;4.45;;
17504;SDS011;8870;50.950;11.762;2023-11-22T11:28:17;7.35;;;4.57;;
17504;SDS011;8870;50.950;11.762;2023-11-22T11:33:53;5.05;;;4.43;;
17504;SDS011;8870;50.950;11.762;2023-11-22T11:39:13;6.53;;;4.80;;
17504;SDS011;8870;50.950;11.762;2023-11-22T11:45:02;4.93;;;4.30;;
17504;SDS011;8870;50.950;11.762;2023-11-22T11:50:22;4.88;;;4.38;;
17504;SDS011;8870;50.950;11.762;2023-11-22T11:55:52;5.47;;;4.63;;
17504;SDS011;8870;50.950;11.762;2023-11-22T12:01:14;5.22;;;4.60;;
17504;SDS011;8870;50.950;11.762;2023-11-22T12:06:49;4.55;;;4.15;;
17504;SDS011;8870;50.950;11.762;2023-11-22T12:12:08;4.70;;;4.15;;
17504;SDS011;8870;50.950;11.762;2023-11-22T12:17:42;4.93;;;4.18;;
17504;SDS011;8870;50.950;11.762;2023-11-22T12:23:01;8.48;;;4.82;;
17504;SDS011;8870;50.950;11.762;2023-11-22T12:28:33;7.13;;;4.60;;
17504;SDS011;8870;50.950;11.762;2023-11-22T12:34:06;8.45;;;5.47;;
17504;SDS011;8870;50.950;11.762;2023-11-22T12:39:39;6.10;;;5.50;;
17504;SDS011;8870;50.950;11.762;2023-11-22T12:45:05;6.20;;;5.32;;
17504;SDS011;8870;50.950;11.762;2023-11-22T12:50:40;7.55;;;5.72;;
17504;SDS011;8870;50.950;11.762;2023-11-22T12:55:58;8.02;;;5.40;;
17504;SDS011;8870;50.950;11.762;2023-11-22T13:01:30;7.53;;;6.32;;
17504;SDS011;8870;50.950;11.762;2023-11-22T13:06:52;6.70;;;4.85;;
17504;SDS011;8870;50.950;11.762;2023-11-22T13:12:24;6.20;;;5.60;;
17504;SDS011;8870;50.950;11.762;2023-11-22T13:17:44;5.90;;;5.18;;
17504;SDS011;8870;50.950;11.762;2023-11-22T13:23:19;5.55;;;4.95;;
17504;SDS011;8870;50.950;11.762;2023-11-22T13:28:38;5.60;;;5.07;;
17504;SDS011;8870;50.950;11.762;2023-11-22T13:34:10;5.60;;;5.10;;
17504;SDS011;8870;50.950;11.762;2023-11-22T13:39:31;5.75;;;4.63;;
17504;SDS011;8870;50.950;11.762;2023-11-22T13:45:04;6.50;;;4.60;;
17504;SDS011;8870;50.950;11.762;2023-11-22T13:50:38;5.00;;;4.50;;
17504;SDS011;8870;50.950;11.762;2023-11-22T13:56:00;5.03;;;4.30;;
17504;SDS011;8870;50.950;11.762;2023-11-22T14:01:33;4.55;;;4.15;;
17504;SDS011;8870;50.950;11.762;2023-11-22T14:06:56;5.25;;;4.75;;
17504;SDS011;8870;50.950;11.762;2023-11-22T14:12:31;5.32;;;4.78;;
17504;SDS011;8870;50.950;11.762;2023-11-22T14:17:50;5.25;;;4.75;;
17504;SDS011;8870;50.950;11.762;2023-11-22T14:23:21;5.65;;;4.80;;
17504;SDS011;8870;50.950;11.762;2023-11-22T14:28:42;6.07;;;5.20;;
17504;SDS011;8870;50.950;11.762;2023-11-22T14:34:13;9.07;;;4.72;;
17504;SDS011;8870;50.950;11.762;2023-11-22T14:39:31;5.15;;;4.57;;
17504;SDS011;8870;50.950;11.762;2023-11-22T14:45:06;6.93;;;4.90;;
17504;SDS011;8870;50.950;11.762;2023-11-22T14:50:37;5.80;;;5.18;;
17504;SDS011;8870;50.950;11.762;2023-11-22T14:55:56;6.45;;;5.10;;
17504;SDS011;8870;50.950;11.762;2023-11-22T15:01:31;4.85;;;4.32;;
17504;SDS011;8870;50.950;11.762;2023-11-22T15:06:50;5.45;;;4.95;;
17504;SDS011;8870;50.950;11.762;2023-11-22T15:12:20;5.47;;;4.95;;
17504;SDS011;8870;50.950;11.762;2023-11-22T15:17:42;5.65;;;4.95;;
17504;SDS011;8870;50.950;11.762;2023-11-22T15:23:13;5.70;;;5.20;;
17504;SDS011;8870;50.950;11.762;2023-11-22T15:28:32;5.90;;;5.30;;
17504;SDS011;8870;50.950;11.762;2023-11-22T15:34:07;6.30;;;5.13;;
17504;SDS011;8870;50.950;11.762;2023-11-22T15:39:26;7.40;;;6.10;;
17504;SDS011;8870;50.950;11.762;2023-11-22T15:44:58;6.05;;;5.25;;
17504;SDS011;8870;50.950;11.762;2023-11-22T15:50:19;7.55;;;5.15;;
17504;SDS011;8870;50.950;11.762;2023-11-22T15:55:51;5.72;;;5.00;;
17504;SDS011;8870;50.950;11.762;2023-11-22T16:01:10;5.53;;;4.70;;
17504;SDS011;8870;50.950;11.762;2023-11-22T16:06:46;8.63;;;7.63;;
17504;SDS011;8870;50.950;11.762;2023-11-22T16:12:07;12.13;;;10.10;;
17504;SDS011;8870;50.950;11.762;2023-11-22T16:17:40;9.40;;;7.60;;
17504;SDS011;8870;50.950;11.762;2023-11-22T16:23:01;6.90;;;5.80;;
17504;SDS011;8870;50.950;11.762;2023-11-22T16:28:33;6.95;;;6.25;;
17504;SDS011;8870;50.950;11.762;2023-11-22T16:33:52;6.93;;;6.25;;
17504;SDS011;8870;50.950;11.762;2023-11-22T16:39:26;9.02;;;8.10;;
17504;SDS011;8870;50.950;11.762;2023-11-22T16:44:52;8.57;;;5.78;;
17504;SDS011;8870;50.950;11.762;2023-11-22T16:50:23;6.07;;;5.40;;
17504;SDS011;8870;50.950;11.762;2023-11-22T16:55:45;7.93;;;6.90;;
17504;SDS011;8870;50.950;11.762;2023-11-22T17:01:17;7.10;;;6.40;;
17504;SDS011;8870;50.950;11.762;2023-11-22T17:06:36;9.18;;;6.80;;
17504;SDS011;8870;50.950;11.762;2023-11-22T17:12:09;7.47;;;6.53;;
17504;SDS011;8870;50.950;11.762;2023-11-22T17:17:28;8.57;;;6.40;;
17504;SDS011;8870;50.950;11.762;2023-11-22T17:22:59;7.35;;;6.55;;
17504;SDS011;8870;50.950;11.762;2023-11-22T17:28:20;8.70;;;6.10;;
17504;SDS011;8870;50.950;11.762;2023-11-22T17:33:52;7.05;;;6.35;;
17504;SDS011;8870;50.950;11.762;2023-11-22T17:39:10;7.68;;;6.88;;
17504;SDS011;8870;50.950;11.762;2023-11-22T17:44:45;7.88;;;6.63;;
17504;SDS011;8870;50.950;11.762;2023-11-22T17:50:06;7.50;;;6.45;;
17504;SDS011;8870;50.950;11.762;2023-11-22T17:55:38;6.75;;;6.05;;
17504;SDS011;8870;50.950;11.762;2023-11-22T18:01:00;7.13;;;6.22;;
17504;SDS011;8870;50.950;11.762;2023-11-22T18:06:31;7.13;;;6.32;;
17504;SDS011;8870;50.950;11.762;2023-11-22T18:11:50;6.75;;;6.05;;
17504;SDS011;8870;50.950;11.762;2023-11-22T18:17:23;9.35;;;8.30;;
17504;SDS011;8870;50.950;11.762;2023-11-22T18:22:42;6.95;;;6.25;;
17504;SDS011;8870;50.950;11.762;2023-11-22T18:28:12;8.80;;;6.80;;
17504;SDS011;8870;50.950;11.762;2023-11-22T18:33:35;8.25;;;7.35;;
17504;SDS011;8870;50.950;11.762;2023-11-22T18:39:09;8.98;;;7.20;;
17504;SDS011;8870;50.950;11.762;2023-11-22T18:44:28;9.48;;;7.05;;
17504;SDS011;8870;50.950;11.762;2023-11-22T18:50:02;9.23;;;8.15;;
17504;SDS011;8870;50.950;11.762;2023-11-22T18:55:22;9.65;;;7.00;;
17504;SDS011;8870;50.950;11.762;2023-11-22T19:00:52;6.97;;;5.80;;
17504;SDS011;8870;50.950;11.762;2023-11-22T19:06:13;8.85;;;5.93;;
17504;SDS011;8870;50.950;11.762;2023-11-22T19:11:44;7.10;;;6.00;;
17504;SDS011;8870;50.950;11.762;2023-11-22T19:17:03;6.75;;;5.53;;
17504;SDS011;8870;50.950;11.762;2023-11-22T19:22:37;6.65;;;5.65;;
17504;SDS011;8870;50.950;11.762;2023-11-22T19:27:56;7.53;;;5.78;;
17504;SDS011;8870;50.950;11.762;2023-11-22T19:33:29;7.15;;;5.88;;
17504;SDS011;8870;50.950;11.762;2023-11-22T19:38:50;6.32;;;5.70;;
17504;SDS011;8870;50.950;11.762;2023-11-22T19:44:23;7.40;;;6.60;;
17504;SDS011;8870;50.950;11.762;2023-11-22T19:49:41;7.57;;;6.25;;
17504;SDS011;8870;50.950;11.762;2023-11-22T19:55:15;7.80;;;7.00;;
17504;SDS011;8870;50.950;11.762;2023-11-22T20:00:35;7.70;;;6.90;;
17504;SDS011;8870;50.950;11.762;2023-11-22T20:06:07;9.65;;;7.55;;
17504;SDS011;8870;50.950;11.762;2023-11-22T20:11:30;7.80;;;6.47;;
17504;SDS011;8870;50.950;11.762;2023-11-22T20:17:02;8.45;;;7.50;;
17504;SDS011;8870;50.950;11.762;2023-11-22T20:22:24;9.20;;;7.57;;
17504;SDS011;8870;50.950;11.762;2023-11-22T20:27:57;6.47;;;5.63;;
17504;SDS011;8870;50.950;11.762;2023-11-22T20:33:16;6.80;;;6.07;;
17504;SDS011;8870;50.950;11.762;2023-11-22T20:38:46;7.25;;;5.55;;
17504;SDS011;8870;50.950;11.762;2023-11-22T20:44:09;7.47;;;5.63;;
17504;SDS011;8870;50.950;11.762;2023-11-22T20:49:40;6.88;;;6.05;;
17504;SDS011;8870;50.950;11.762;2023-11-22T20:55:01;7.85;;;6.00;;
17504;SDS011;8870;50.950;11.762;2023-11-22T21:00:35;7.63;;;5.80;;
17504;SDS011;8870;50.950;11.762;2023-11-22T21:05:54;6.13;;;5.38;;
17504;SDS011;8870;50.950;11.762;2023-11-22T21:11:25;7.18;;;5.60;;
17504;SDS011;8870;50.950;11.762;2023-11-22T21:16:46;7.40;;;5.80;;
17504;SDS011;8870;50.950;11.762;2023-11-22T21:22:20;6.25;;;5.47;;
17504;SDS011;8870;50.950;11.762;2023-11-22T21:27:38;5.97;;;5.38;;
17504;SDS011;8870;50.950;11.762;2023-11-22T21:33:11;6.18;;;5.57;;
17504;SDS011;8870;50.950;11.762;2023-11-22T21:38:30;6.95;;;6.25;;
17504;SDS011;8870;50.950;11.762;2023-11-22T21:43:48;7.18;;;6.03;;
17504;SDS011;8870;50.950;11.762;2023-11-22T21:49:23;6.22;;;5.35;;
17504;SDS011;8870;50.950;11.762;2023-11-22T21:54:42;5.10;;;4.60;;
17504;SDS011;8870;50.950;11.762;2023-11-22T22:00:13;4.90;;;4.40;;
17504;SDS011;8870;50.950;11.762;2023-11-22T22:05:35;5.35;;;4.40;;
17504;SDS011;8870;50.950;11.762;2023-11-22T22:11:07;4.93;;;4.43;;
17504;SDS011;8870;50.950;11.762;2023-11-22T22:16:25;4.93;;;4.38;;
17504;SDS011;8870;50.950;11.762;2023-11-22T22:21:58;4.93;;;4.30;;
17504;SDS011;8870;50.950;11.762;2023-11-22T22:27:17;6.18;;;4.75;;
17504;SDS011;8870;50.950;11.762;2023-11-22T22:32:49;6.47;;;4.53;;
17504;SDS011;8870;50.950;11.762;2023-11-22T22:38:09;5.30;;;4.80;;
17504;SDS011;8870;50.950;11.762;2023-11-22T22:43:41;7.30;;;5.40;;
17504;SDS011;8870;50.950;11.762;2023-11-22T22:48:59;6.18;;;4.93;;
17504;SDS011;8870;50.950;11.762;2023-11-22T22:54:35;5.30;;;4.80;;
17504;SDS011;8870;50.950;11.762;2023-11-22T22:59:54;6.00;;;4.82;;
17504;SDS011;8870;50.950;11.762;2023-11-22T23:05:29;5.93;;;4.40;;
17504;SDS011;8870;50.950;11.762;2023-11-22T23:10:49;4.65;;;4.13;;
17504;SDS011;8870;50.950;11.762;2023-11-22T23:16:21;4.82;;;4.18;;
17504;SDS011;8870;50.950;11.762;2023-11-22T23:21:39;4.38;;;3.78;;
17504;SDS011;8870;50.950;11.762;2023-11-22T23:27:13;5.13;;;3.88;;
17504;SDS011;8870;50.950;11.762;2023-11-22T23:32:32;4.53;;;3.38;;
17504;SDS011;8870;50.950;11.762;2023-11-22T23:38:04;3.90;;;3.03;;
17504;SDS011;8870;50.950;11.762;2023-11-22T23:43:25;4.32;;;3.17;;
17504;SDS011;8870;50.950;11.762;2023-11-22T23:48:58;3.10;;;2.80;;
17504;SDS011;8870;50.950;11.762;2023-11-22T23:54:17;3.08;;;2.78;;
17504;SDS011;8870;50.950;11.762;2023-11-22T23:59:50;3.92;;;3.00;;
